Time;durP1;ratioP1;P1;durP2;ratioP2;P2;SDS_P1;SDS_P2;PMS_P1;PMS_P2;Temp;Humidity;BMP_temperature;BMP_pressure;BME280_temperature;BME280_humidity;BME280_pressure;Samples;Min_cycle;Max_cycle;Signal;HPM_P1;HPM_P2
2022/07/29 00:01:22;;;;;;;;;;;;;;;-144.99;100.00;61100.13;5114693;27;20291;-75
2022/07/29 00:03:48;;;;;;;;;;;;;;;-144.99;100.00;61100.13;5105219;27;19927;-74
2022/07/29 00:06:15;;;;;;;;;;;;;;;-144.99;100.00;61100.13;5118621;27;19937;-75
2022/07/29 00:08:41;;;;;;;;;;;;;;;-144.99;100.00;61100.13;5122171;27;20003;-74
2022/07/29 00:11:08;;;;;;;;;;;;;;;-144.99;100.00;61100.13;5110732;27;20097;-74
2022/07/29 00:13:36;;;;;;;;;;;;;;;-144.99;100.00;61100.13;5100037;28;19926;-74
2022/07/29 00:16:03;;;;;;;;;;;;;;;-144.99;100.00;61100.13;5121381;27;20004;-75
2022/07/29 00:18:29;;;;;;;;;;;;;;;-144.99;100.00;61100.13;5118436;27;20336;-73
2022/07/29 00:20:56;;;;;;;;;;;;;;;-144.99;100.00;61100.13;5119624;27;19959;-73
2022/07/29 00:23:22;;;;;;;;;;;;;;;-144.99;100.00;61100.13;5109926;27;19924;-72
2022/07/29 00:25:48;;;;;;;;;;;;;;;-144.99;100.00;61100.13;5106831;28;20022;-73
2022/07/29 00:28:15;;;;;;;;;;;;;;;-144.99;100.00;61100.13;5117073;27;19934;-72
2022/07/29 00:30:43;;;;;;;;;;;;;;;-144.99;100.00;61100.13;5104932;27;19970;-73
2022/07/29 00:33:10;;;;;;;;;;;;;;;-144.99;100.00;61100.13;5115497;27;20077;-73
2022/07/29 00:35:44;;;;;;;;;;;;;;;-144.99;100.00;61100.13;4757743;27;10000278;-72
2022/07/29 00:38:11;;;;;;;;;;;;;;;-144.99;100.00;61100.13;5101055;27;20255;-73
2022/07/29 00:40:38;;;;;;;;;;;;;;;-144.99;100.00;61100.13;5114735;27;19946;-73
2022/07/29 00:43:04;;;;;;;;;;;;;;;-144.99;100.00;61100.13;5105931;28;19955;-73
2022/07/29 00:45:33;;;;;;;;;;;;;;;-144.99;100.00;61100.13;5107767;27;19923;-73
2022/07/29 00:48:01;;;;;;;;;;;;;;;-144.99;100.00;61100.13;5109319;27;20385;-73
2022/07/29 00:50:27;;;;;;;;;;;;;;;-144.99;100.00;61100.13;5115057;27;19972;-73
2022/07/29 00:52:54;;;;;;;;;;;;;;;-144.99;100.00;61100.13;5118254;27;20340;-73
2022/07/29 00:55:20;;;;;;;;;;;;;;;-144.99;100.00;61100.13;5112523;27;19919;-73
2022/07/29 00:57:47;;;;;;;;;;;;;;;-144.99;100.00;61100.13;5110559;27;19919;-73
2022/07/29 01:00:15;;;;;;;;;;;;;;;-144.99;100.00;61100.13;5123493;27;19926;-73
2022/07/29 01:02:43;;;;;;;;;;;;;;;-144.99;100.00;61100.13;5096873;28;19923;-72
2022/07/29 01:05:12;;;;;;;;;;;;;;;-144.99;100.00;61100.13;5107398;28;19924;-72
2022/07/29 01:07:39;;;;;;;;;;;;;;;-144.99;100.00;61100.13;5120678;27;19965;-71
2022/07/29 01:10:07;;;;;;;;;;;;;;;-144.99;100.00;61100.13;5124503;27;19972;-73
2022/07/29 01:12:34;;;;;;;;;;;;;;;-144.99;100.00;61100.13;5115759;27;19998;-72
2022/07/29 01:15:02;;;;;;;;;;;;;;;-144.99;100.00;61100.13;5109063;28;19998;-73
2022/07/29 01:17:31;;;;;;;;;;;;;;;-144.99;100.00;61100.13;5113051;27;19963;-72
2022/07/29 01:20:01;;;;;;;;;;;;;;;-144.99;100.00;61100.13;5121273;27;19919;-74
2022/07/29 01:22:39;;;;;;;;;;;;;;;-144.99;100.00;61100.13;5108945;27;19923;-74
2022/07/29 01:25:18;;;;;;;;;;;;;;;-144.99;100.00;61100.13;5109708;28;19920;-74
2022/07/29 01:28:12;;;;;;;;;;;;;;;-144.99;100.00;61100.13;5130336;27;20346;-74
2022/07/29 01:30:42;;;;;;;;;;;;;;;-144.99;100.00;61100.13;5091458;27;19927;-74
2022/07/29 01:33:48;;;;;;;;;;;;;;;-144.99;100.00;61100.13;5114440;27;19920;-73
2022/07/29 01:36:00;;;;;;;;;;;;;;;-144.99;100.00;61100.13;5121970;27;19919;-74
2022/07/29 01:38:28;;;;;;;;;;;;;;;-144.99;100.00;61100.13;5111954;27;19984;-73
2022/07/29 01:40:59;;;;;;;;;;;;;;;-144.99;100.00;61100.13;5128772;27;19972;-73
2022/07/29 01:43:30;;;;;;;;;;;;;;;-144.99;100.00;61100.13;5113251;27;20019;-74
2022/07/29 01:46:01;;;;;;;;;;;;;;;-144.99;100.00;61100.13;5125168;27;20018;-73
2022/07/29 01:48:32;;;;;;;;;;;;;;;-144.99;100.00;61100.13;5122046;27;19927;-74
2022/07/29 01:51:02;;;;;;;;;;;;;;;-144.99;100.00;61100.13;5120657;27;20061;-74
2022/07/29 01:53:32;;;;;;;;;;;;;;;-144.99;100.00;61100.13;5109658;27;19920;-74
2022/07/29 01:56:01;;;;;;;;;;;;;;;-144.99;100.00;61100.13;5119312;27;19919;-73
2022/07/29 01:58:29;;;;;;;;;;;;;;;-144.99;100.00;61100.13;5129662;27;19920;-73
2022/07/29 02:00:58;;;;;;;;;;;;;;;-144.99;100.00;61100.13;5128836;27;19935;-74
2022/07/29 02:03:25;;;;;;;;;;;;;;;-144.99;100.00;61100.13;5113032;27;19923;-73
2022/07/29 02:05:53;;;;;;;;;;;;;;;-144.99;100.00;61100.13;5114103;27;19919;-73
2022/07/29 02:08:20;;;;;;;;;;;;;;;-144.99;100.00;61100.13;5129887;27;19963;-74
2022/07/29 02:10:48;;;;;;;;;;;;;;;-144.99;100.00;61100.13;5123189;27;19924;-73
2022/07/29 02:13:16;;;;;;;;;;;;;;;-144.99;100.00;61100.13;5117791;27;19973;-72
2022/07/29 02:15:43;;;;;;;;;;;;;;;-144.99;100.00;61100.13;5124037;27;19973;-73
2022/07/29 02:18:13;;;;;;;;;;;;;;;-144.99;100.00;61100.13;5135809;27;19972;-73
2022/07/29 02:20:42;;;;;;;;;;;;;;;-144.99;100.00;61100.13;5134382;27;19951;-74
2022/07/29 02:23:11;;;;;;;;;;;;;;;-144.99;100.00;61100.13;5128724;27;19928;-74
2022/07/29 02:25:38;;;;;;;;;;;;;;;-144.99;100.00;61100.13;5127145;28;20011;-74
2022/07/29 02:28:06;;;;;;;;;;;;;;;-144.99;100.00;61100.13;5137184;27;19923;-75
2022/07/29 02:30:32;;;;;;;;;;;;;;;-144.99;100.00;61100.13;5138543;27;19919;-74
2022/07/29 02:33:00;;;;;;;;;;;;;;;-144.99;100.00;61100.13;5130416;27;19942;-74
2022/07/29 02:35:28;;;;;;;;;;;;;;;-144.99;100.00;61100.13;5140594;27;19927;-77
2022/07/29 02:40:36;;;;;;;;;;;;;;;-144.99;100.00;61100.13;5151023;27;19911;-77
2022/07/29 02:43:06;;;;;;;;;;;;;;;-144.99;100.00;61100.13;5143922;27;19924;-78
2022/07/29 02:45:34;;;;;;;;;;;;;;;-144.99;100.00;61100.13;5135662;27;19908;-76
2022/07/29 02:48:01;;;;;;;;;;;;;;;-144.99;100.00;61100.13;5146039;27;19908;-75
2022/07/29 02:50:32;;;;;;;;;;;;;;;-144.99;100.00;61100.13;5148870;27;19923;-75
2022/07/29 02:53:01;;;;;;;;;;;;;;;-144.99;100.00;61100.13;5144594;27;19945;-75
2022/07/29 02:55:31;;;;;;;;;;;;;;;-144.99;100.00;61100.13;5131440;28;19916;-75
2022/07/29 02:58:00;;;;;;;;;;;;;;;-144.99;100.00;61100.13;5148112;27;19939;-76
2022/07/29 03:00:28;;;;;;;;;;;;;;;-144.99;100.00;61100.13;5149017;27;19907;-76
2022/07/29 03:02:57;;;;;;;;;;;;;;;-144.99;100.00;61100.13;5130668;28;19912;-75
2022/07/29 03:05:23;;;;;;;;;;;;;;;-144.99;100.00;61100.13;5135311;28;19920;-75
2022/07/29 03:07:55;;;;;;;;;;;;;;;-144.99;100.00;61100.13;5135025;27;19920;-74
2022/07/29 03:10:22;;;;;;;;;;;;;;;-144.99;100.00;61100.13;5132983;28;19952;-74
2022/07/29 03:12:49;;;;;;;;;;;;;;;-144.99;100.00;61100.13;5136016;27;19987;-76
2022/07/29 03:15:16;;;;;;;;;;;;;;;-144.99;100.00;61100.13;5099413;22;19924;-75
2022/07/29 03:17:43;;;;;;;;;;;;;;;-144.99;100.00;61100.13;5068298;28;20322;-74
2022/07/29 03:20:10;;;;;;;;;;;;;;;-144.99;100.00;61100.13;5073889;28;19977;-74
2022/07/29 03:22:43;;;;;;;;;;;;;;;-144.99;100.00;61100.13;5068378;28;20358;-76
2022/07/29 03:25:11;;;;;;;;;;;;;;;-144.99;100.00;61100.13;5071364;28;20275;-74
2022/07/29 03:27:38;;;;;;;;;;;;;;;-144.99;100.00;61100.13;5069894;28;19970;-75
2022/07/29 03:30:05;;;;;;;;;;;;;;;-144.99;100.00;61100.13;5065345;28;19982;-76
2022/07/29 03:32:31;;;;;;;;;;;;;;;-144.99;100.00;61100.13;5069928;28;19968;-75
2022/07/29 03:34:58;;;;;;;;;;;;;;;-144.99;100.00;61100.13;5070631;28;19924;-75
2022/07/29 03:37:24;;;;;;;;;;;;;;;-144.99;100.00;61100.13;5062896;28;19967;-75
2022/07/29 03:39:51;;;;;;;;;;;;;;;-144.99;100.00;61100.13;5068089;28;20027;-75
2022/07/29 03:42:21;;;;;;;;;;;;;;;-144.99;100.00;61100.13;5060318;28;20371;-76
2022/07/29 03:44:49;;;;;;;;;;;;;;;-144.99;100.00;61100.13;5069257;28;19981;-76
2022/07/29 03:47:18;;;;;;;;;;;;;;;-144.99;100.00;61100.13;5069915;28;20272;-74
2022/07/29 03:49:47;;;;;;;;;;;;;;;-144.99;100.00;61100.13;5068391;28;20379;-74
2022/07/29 03:52:14;;;;;;;;;;;;;;;-144.99;100.00;61100.13;5060525;28;19925;-74
2022/07/29 03:54:41;;;;;;;;;;;;;;;-144.99;100.00;61100.13;5069221;28;19924;-74
2022/07/29 03:57:08;;;;;;;;;;;;;;;-144.99;100.00;61100.13;5069360;28;20009;-75
2022/07/29 03:59:36;;;;;;;;;;;;;;;-144.99;100.00;61100.13;5068930;28;19952;-74
2022/07/29 04:02:04;;;;;;;;;;;;;;;-144.99;100.00;61100.13;5071934;28;20333;-74
2022/07/29 04:04:33;;;;;;;;;;;;;;;-144.99;100.00;61100.13;5068632;28;20012;-76
2022/07/29 04:06:59;;;;;;;;;;;;;;;-144.99;100.00;61100.13;5067221;28;19920;-75
2022/07/29 04:09:26;;;;;;;;;;;;;;;-144.99;100.00;61100.13;5068881;28;19967;-75
2022/07/29 04:11:52;;;;;;;;;;;;;;;-144.99;100.00;61100.13;5069167;28;20183;-75
2022/07/29 04:14:20;;;;;;;;;;;;;;;-144.99;100.00;61100.13;5068453;28;19977;-75
2022/07/29 04:16:48;;;;;;;;;;;;;;;-144.99;100.00;61100.13;5068542;28;20432;-75
2022/07/29 04:19:14;;;;;;;;;;;;;;;-144.99;100.00;61100.13;5071271;28;19928;-74
2022/07/29 04:21:41;;;;;;;;;;;;;;;-144.99;100.00;61100.13;5068366;28;19924;-73
2022/07/29 04:24:08;;;;;;;;;;;;;;;-144.99;100.00;61100.13;5073084;28;20266;-77
2022/07/29 04:26:35;;;;;;;;;;;;;;;-144.99;100.00;61100.13;5068839;28;19921;-76
2022/07/29 04:29:02;;;;;;;;;;;;;;;-144.99;100.00;61100.13;5069670;28;20319;-76
2022/07/29 04:31:28;;;;;;;;;;;;;;;-144.99;100.00;61100.13;5077074;28;19921;-75
2022/07/29 04:33:56;;;;;;;;;;;;;;;-144.99;100.00;61100.13;5086522;28;19920;-77
2022/07/29 04:36:23;;;;;;;;;;;;;;;-144.99;100.00;61100.13;5077028;28;20179;-77
2022/07/29 04:38:49;;;;;;;;;;;;;;;-144.99;100.00;61100.13;5067816;28;19982;-75
2022/07/29 04:41:16;;;;;;;;;;;;;;;-144.99;100.00;61100.13;5068808;28;19928;-76
2022/07/29 04:43:42;;;;;;;;;;;;;;;-144.99;100.00;61100.13;5071916;28;19920;-78
2022/07/29 04:46:09;;;;;;;;;;;;;;;-144.99;100.00;61100.13;5070038;28;19967;-74
2022/07/29 04:48:35;;;;;;;;;;;;;;;-144.99;100.00;61100.13;5068486;28;20329;-75
2022/07/29 04:51:03;;;;;;;;;;;;;;;-144.99;100.00;61100.13;5067524;28;19924;-74
2022/07/29 04:53:30;;;;;;;;;;;;;;;-144.99;100.00;61100.13;5069005;28;20012;-74
2022/07/29 04:55:56;;;;;;;;;;;;;;;-144.99;100.00;61100.13;5068037;28;20381;-75
2022/07/29 04:58:23;;;;;;;;;;;;;;;-144.99;100.00;61100.13;5068417;28;19920;-74
2022/07/29 05:00:50;;;;;;;;;;;;;;;-144.99;100.00;61100.13;5066245;28;19935;-75
2022/07/29 05:03:16;;;;;;;;;;;;;;;-144.99;100.00;61100.13;5067750;28;19978;-75
2022/07/29 05:05:43;;;;;;;;;;;;;;;-144.99;100.00;61100.13;5065779;28;20379;-74
2022/07/29 05:08:11;;;;;;;;;;;;;;;-144.99;100.00;61100.13;4365844;28;10000738;-74
2022/07/29 05:10:37;;;;;;;;;;;;;;;-144.99;100.00;61100.13;5060123;28;20416;-76
2022/07/29 05:13:04;;;;;;;;;;;;;;;-144.99;100.00;61100.13;5066554;28;19932;-74
2022/07/29 05:15:31;;;;;;;;;;;;;;;-144.99;100.00;61100.13;5062958;28;19927;-74
2022/07/29 05:17:57;;;;;;;;;;;;;;;-144.99;100.00;61100.13;5065920;28;19928;-74
2022/07/29 05:20:27;;;;;;;;;;;;;;;-144.99;100.00;61100.13;5064673;28;19995;-73
2022/07/29 05:22:54;;;;;;;;;;;;;;;-144.99;100.00;61100.13;5065972;28;19931;-76
2022/07/29 05:25:22;;;;;;;;;;;;;;;-144.99;100.00;61100.13;5072400;28;19920;-74
2022/07/29 05:27:48;;;;;;;;;;;;;;;-144.99;100.00;61100.13;5078907;28;19920;-75
2022/07/29 05:30:15;;;;;;;;;;;;;;;-144.99;100.00;61100.13;5070115;28;19921;-74
2022/07/29 05:32:41;;;;;;;;;;;;;;;-144.99;100.00;61100.13;5068666;28;19973;-75
2022/07/29 05:35:08;;;;;;;;;;;;;;;-144.99;100.00;61100.13;5062357;28;19928;-75
2022/07/29 05:37:35;;;;;;;;;;;;;;;-144.99;100.00;61100.13;5066560;28;20035;-73
2022/07/29 05:40:02;;;;;;;;;;;;;;;-144.99;100.00;61100.13;5063185;28;19924;-75
2022/07/29 05:42:30;;;;;;;;;;;;;;;-144.99;100.00;61100.13;5061935;28;20027;-75
2022/07/29 05:44:56;;;;;;;;;;;;;;;-144.99;100.00;61100.13;5062815;28;19977;-74
2022/07/29 05:47:23;;;;;;;;;;;;;;;-144.99;100.00;61100.13;5063452;28;19954;-75
2022/07/29 05:49:50;;;;;;;;;;;;;;;-144.99;100.00;61100.13;5062719;28;19928;-73
2022/07/29 05:52:16;;;;;;;;;;;;;;;-144.99;100.00;61100.13;5054698;28;20343;-75
2022/07/29 05:54:43;;;;;;;;;;;;;;;-144.99;100.00;61100.13;5064618;28;20373;-74
2022/07/29 05:57:15;;;;;;;;;;;;;;;-144.99;100.00;61100.13;5063244;28;19924;-74
2022/07/29 05:59:43;;;;;;;;;;;;;;;-144.99;100.00;61100.13;5063860;28;20388;-74
2022/07/29 06:02:10;;;;;;;;;;;;;;;-144.99;100.00;61100.13;5062417;28;20382;-75
2022/07/29 06:04:36;;;;;;;;;;;;;;;-144.99;100.00;61100.13;5062749;28;19944;-75
2022/07/29 06:07:03;;;;;;;;;;;;;;;-144.99;100.00;61100.13;5062941;28;20235;-73
2022/07/29 06:09:29;;;;;;;;;;;;;;;-144.99;100.00;61100.13;5063168;28;19924;-75
2022/07/29 06:11:57;;;;;;;;;;;;;;;-144.99;100.00;61100.13;5064770;28;19932;-75
2022/07/29 06:14:24;;;;;;;;;;;;;;;-144.99;100.00;61100.13;5066728;28;19931;-75
2022/07/29 06:16:52;;;;;;;;;;;;;;;-144.99;100.00;61100.13;5066298;28;20003;-75
2022/07/29 06:19:19;;;;;;;;;;;;;;;-144.99;100.00;61100.13;5066327;28;20346;-76
2022/07/29 06:21:46;;;;;;;;;;;;;;;-144.99;100.00;61100.13;5062814;28;20003;-75
2022/07/29 06:24:13;;;;;;;;;;;;;;;-144.99;100.00;61100.13;5071357;28;20000;-75
2022/07/29 06:26:39;;;;;;;;;;;;;;;-144.99;100.00;61100.13;5064288;28;19935;-74
2022/07/29 06:29:06;;;;;;;;;;;;;;;-144.99;100.00;61100.13;5066758;28;19924;-74
2022/07/29 06:31:32;;;;;;;;;;;;;;;-144.99;100.00;61100.13;5059876;28;19936;-73
2022/07/29 06:34:00;;;;;;;;;;;;;;;-144.99;100.00;61100.13;5070348;28;19964;-75
2022/07/29 06:36:27;;;;;;;;;;;;;;;-144.99;100.00;61100.13;5062212;28;20025;-75
2022/07/29 06:38:53;;;;;;;;;;;;;;;-144.99;100.00;61100.13;5055199;28;20409;-75
2022/07/29 06:41:20;;;;;;;;;;;;;;;-144.99;100.00;61100.13;5046766;28;19982;-75
2022/07/29 06:43:47;;;;;;;;;;;;;;;-144.99;100.00;61100.13;4712014;28;10000584;-75
2022/07/29 06:46:14;;;;;;;;;;;;;;;-144.99;100.00;61100.13;5046734;28;19936;-71
2022/07/29 06:48:42;;;;;;;;;;;;;;;-144.99;100.00;61100.13;5051679;28;20379;-72
2022/07/29 06:51:11;;;;;;;;;;;;;;;-144.99;100.00;61100.13;5059962;28;20371;-74
2022/07/29 06:53:37;;;;;;;;;;;;;;;-144.99;100.00;61100.13;5061957;28;19920;-73
2022/07/29 06:56:05;;;;;;;;;;;;;;;-144.99;100.00;61100.13;5065772;28;20233;-76
2022/07/29 06:58:32;;;;;;;;;;;;;;;-144.99;100.00;61100.13;5065276;28;19928;-75
2022/07/29 07:00:59;;;;;;;;;;;;;;;-144.99;100.00;61100.13;5071431;28;20004;-74
2022/07/29 07:03:26;;;;;;;;;;;;;;;-144.99;100.00;61100.13;5066463;28;19924;-77
2022/07/29 07:05:53;;;;;;;;;;;;;;;-144.99;100.00;61100.13;5063729;28;20018;-78
2022/07/29 07:08:21;;;;;;;;;;;;;;;-144.99;100.00;61100.13;5068559;28;20375;-78
2022/07/29 07:10:48;;;;;;;;;;;;;;;-144.99;100.00;61100.13;5074033;28;20207;-78
2022/07/29 07:13:16;;;;;;;;;;;;;;;-144.99;100.00;61100.13;5059457;28;19939;-77
2022/07/29 07:15:43;;;;;;;;;;;;;;;-144.99;100.00;61100.13;5066606;28;19920;-77
2022/07/29 07:18:10;;;;;;;;;;;;;;;-144.99;100.00;61100.13;5067257;28;19928;-79
2022/07/29 07:20:36;;;;;;;;;;;;;;;-144.99;100.00;61100.13;5068189;28;19931;-77
2022/07/29 07:23:04;;;;;;;;;;;;;;;-144.99;100.00;61100.13;5065393;28;19973;-78
2022/07/29 07:25:33;;;;;;;;;;;;;;;-144.99;100.00;61100.13;5066924;28;19934;-76
2022/07/29 07:27:59;;;;;;;;;;;;;;;-144.99;100.00;61100.13;5049272;28;20374;-77
2022/07/29 07:30:27;;;;;;;;;;;;;;;-144.99;100.00;61100.13;5057541;28;20381;-77
2022/07/29 07:32:53;;;;;;;;;;;;;;;-144.99;100.00;61100.13;5064571;28;19928;-78
2022/07/29 07:35:20;;;;;;;;;;;;;;;-144.99;100.00;61100.13;5071531;28;19950;-77
2022/07/29 07:37:46;;;;;;;;;;;;;;;-144.99;100.00;61100.13;5077148;28;19974;-76
2022/07/29 07:40:13;;;;;;;;;;;;;;;-144.99;100.00;61100.13;5079766;28;19924;-77
2022/07/29 07:42:41;;;;;;;;;;;;;;;-144.99;100.00;61100.13;5065638;28;19928;-75
2022/07/29 07:45:10;;;;;;;;;;;;;;;-144.99;100.00;61100.13;5056032;28;19971;-76
2022/07/29 07:47:36;;;;;;;;;;;;;;;-144.99;100.00;61100.13;5048442;28;20007;-76
2022/07/29 07:50:03;;;;;;;;;;;;;;;-144.99;100.00;61100.13;5058982;28;20492;-78
2022/07/29 07:52:30;;;;;;;;;;;;;;;-144.99;100.00;61100.13;5070930;28;19932;-76
2022/07/29 07:54:56;;;;;;;;;;;;;;;-144.99;100.00;61100.13;5049567;28;19924;-76
2022/07/29 07:57:23;;;;;;;;;;;;;;;-144.99;100.00;61100.13;5063770;28;19920;-76
2022/07/29 07:59:51;;;;;;;;;;;;;;;-144.99;100.00;61100.13;5052252;28;19931;-76
2022/07/29 08:02:17;;;;;;;;;;;;;;;-144.99;100.00;61100.13;5071555;28;19921;-76
2022/07/29 08:04:44;;;;;;;;;;;;;;;-144.99;100.00;61100.13;5064412;28;19928;-77
2022/07/29 08:07:10;;;;;;;;;;;;;;;-144.99;100.00;61100.13;5063243;28;19924;-74
2022/07/29 08:09:37;;;;;;;;;;;;;;;-144.99;100.00;61100.13;5064664;28;20448;-77
2022/07/29 08:12:05;;;;;;;;;;;;;;;-144.99;100.00;61100.13;5069362;28;20024;-75
2022/07/29 08:14:32;;;;;;;;;;;;;;;-144.99;100.00;61100.13;5063012;28;20371;-76
2022/07/29 08:17:00;;;;;;;;;;;;;;;-144.99;100.00;61100.13;5045073;28;20190;-76
2022/07/29 08:19:27;;;;;;;;;;;;;;;-144.99;100.00;61100.13;5045066;28;20448;-76
2022/07/29 08:21:54;;;;;;;;;;;;;;;-144.99;100.00;61100.13;5054868;28;20375;-75
2022/07/29 08:27:01;;;;;;;;;;;;;;;-144.99;100.00;61100.13;5057025;28;19920;-77
2022/07/29 08:29:27;;;;;;;;;;;;;;;-144.99;100.00;61100.13;5065319;28;19951;-76
2022/07/29 08:31:54;;;;;;;;;;;;;;;-144.99;100.00;61100.13;5069104;28;20335;-76
2022/07/29 08:34:22;;;;;;;;;;;;;;;-144.99;100.00;61100.13;5066091;28;19928;-76
2022/07/29 08:36:48;;;;;;;;;;;;;;;-144.99;100.00;61100.13;5062765;28;19924;-76
2022/07/29 08:39:15;;;;;;;;;;;;;;;-144.99;100.00;61100.13;5063530;28;19924;-74
2022/07/29 08:41:41;;;;;;;;;;;;;;;-144.99;100.00;61100.13;5060998;28;19943;-73
2022/07/29 08:44:08;;;;;;;;;;;;;;;-144.99;100.00;61100.13;5061474;28;19960;-75
2022/07/29 08:46:38;;;;;;;;;;;;;;;-144.99;100.00;61100.13;5065143;28;19970;-76
2022/07/29 08:49:04;;;;;;;;;;;;;;;-144.99;100.00;61100.13;5065041;28;19964;-75
2022/07/29 08:51:35;;;;;;;;;;;;;;;-144.99;100.00;61100.13;5062671;28;20462;-77
2022/07/29 08:54:02;;;;;;;;;;;;;;;-144.99;100.00;61100.13;5063902;28;19924;-74
2022/07/29 08:56:29;;;;;;;;;;;;;;;-144.99;100.00;61100.13;5063855;28;20424;-75
2022/07/29 08:58:55;;;;;;;;;;;;;;;-144.99;100.00;61100.13;5063975;28;20460;-76
2022/07/29 09:01:23;;;;;;;;;;;;;;;-144.99;100.00;61100.13;5063487;28;19971;-75
2022/07/29 09:03:50;;;;;;;;;;;;;;;-144.99;100.00;61100.13;5063030;28;20379;-76
2022/07/29 09:06:18;;;;;;;;;;;;;;;-144.99;100.00;61100.13;5061599;28;20001;-76
2022/07/29 09:08:47;;;;;;;;;;;;;;;-144.99;100.00;61100.13;5064199;28;19939;-76
2022/07/29 09:11:14;;;;;;;;;;;;;;;-144.99;100.00;61100.13;5065021;28;20420;-73
2022/07/29 09:13:41;;;;;;;;;;;;;;;-144.99;100.00;61100.13;5056571;28;19925;-72
2022/07/29 09:16:08;;;;;;;;;;;;;;;-144.99;100.00;61100.13;5095590;22;19924;-78
2022/07/29 09:18:35;;;;;;;;;;;;;;;-144.99;100.00;61100.13;5081929;28;20000;-79
2022/07/29 09:24:02;;;;;;;;;;;;;;;-144.99;100.00;61100.13;5088607;28;19931;-78
2022/07/29 09:26:29;;;;;;;;;;;;;;;-144.99;100.00;61100.13;5081564;28;19931;-79
2022/07/29 09:28:55;;;;;;;;;;;;;;;-144.99;100.00;61100.13;5085460;28;20294;-81
2022/07/29 09:31:27;;;;;;;;;;;;;;;-144.99;100.00;61100.13;5083088;28;20464;-80
2022/07/29 09:33:55;;;;;;;;;;;;;;;-144.99;100.00;61100.13;5083188;28;19948;-80
2022/07/29 09:36:22;;;;;;;;;;;;;;;-144.99;100.00;61100.13;5068720;28;19928;-79
2022/07/29 09:38:58;;;;;;;;;;;;;;;-144.99;100.00;61100.13;5083310;28;19923;-80
2022/07/29 09:41:26;;;;;;;;;;;;;;;-144.99;100.00;61100.13;5088296;28;19935;-79
2022/07/29 09:43:56;;;;;;;;;;;;;;;-144.99;100.00;61100.13;5095882;28;20394;-80
2022/07/29 09:46:24;;;;;;;;;;;;;;;-144.99;100.00;61100.13;5083259;28;19924;-78
2022/07/29 09:49:09;;;;;;;;;;;;;;;-144.99;100.00;61100.13;5090522;28;20323;-76
2022/07/29 09:51:36;;;;;;;;;;;;;;;-144.99;100.00;61100.13;5084428;28;19927;-78
2022/07/29 09:54:04;;;;;;;;;;;;;;;-144.99;100.00;61100.13;5087015;28;19928;-79
2022/07/29 09:56:42;;;;;;;;;;;;;;;-144.99;100.00;61100.13;5087229;28;19928;-78
2022/07/29 09:59:10;;;;;;;;;;;;;;;-144.99;100.00;61100.13;5076902;28;20391;-80
2022/07/29 10:01:37;;;;;;;;;;;;;;;-144.99;100.00;61100.13;5082551;28;19989;-78
2022/07/29 10:04:04;;;;;;;;;;;;;;;-144.99;100.00;61100.13;5086914;28;19924;-80
2022/07/29 10:06:30;;;;;;;;;;;;;;;-144.99;100.00;61100.13;5083094;28;19924;-79
2022/07/29 10:09:07;;;;;;;;;;;;;;;-144.99;100.00;61100.13;5079067;28;19942;-79
2022/07/29 10:11:34;;;;;;;;;;;;;;;-144.99;100.00;61100.13;5086424;28;19995;-78
2022/07/29 10:14:02;;;;;;;;;;;;;;;-144.99;100.00;61100.13;5086678;28;19989;-80
2022/07/29 10:16:32;;;;;;;;;;;;;;;-144.99;100.00;61100.13;5082500;28;19958;-76
2022/07/29 10:18:59;;;;;;;;;;;;;;;-144.99;100.00;61100.13;5079252;28;19927;-77
2022/07/29 10:21:25;;;;;;;;;;;;;;;-144.99;100.00;61100.13;5085924;28;19920;-79
2022/07/29 10:23:53;;;;;;;;;;;;;;;-144.99;100.00;61100.13;5086014;28;19928;-81
2022/07/29 10:26:20;;;;;;;;;;;;;;;-144.99;100.00;61100.13;5084766;28;19945;-80
2022/07/29 10:28:46;;;;;;;;;;;;;;;-144.99;100.00;61100.13;5086720;28;19959;-79
2022/07/29 10:31:20;;;;;;;;;;;;;;;-144.99;100.00;61100.13;5086416;28;19995;-81
2022/07/29 10:33:52;;;;;;;;;;;;;;;-144.99;100.00;61100.13;5087006;28;20034;-81
2022/07/29 10:36:28;;;;;;;;;;;;;;;-144.99;100.00;61100.13;5070310;28;19930;-81
2022/07/29 10:39:02;;;;;;;;;;;;;;;-144.99;100.00;61100.13;5081605;28;20336;-83
2022/07/29 10:41:42;;;;;;;;;;;;;;;-144.99;100.00;61100.13;5086942;28;19920;-79
2022/07/29 10:44:13;;;;;;;;;;;;;;;-144.99;100.00;61100.13;5087335;28;20617;-80
2022/07/29 10:46:42;;;;;;;;;;;;;;;-144.99;100.00;61100.13;5084758;28;19962;-81
2022/07/29 10:49:10;;;;;;;;;;;;;;;-144.99;100.00;61100.13;5083890;28;20425;-81
2022/07/29 10:51:55;;;;;;;;;;;;;;;-144.99;100.00;61100.13;5084731;28;20040;-81
2022/07/29 10:54:37;;;;;;;;;;;;;;;-144.99;100.00;61100.13;5087253;28;19924;-81
2022/07/29 10:57:12;;;;;;;;;;;;;;;-144.99;100.00;61100.13;5097961;28;19977;-80
2022/07/29 10:59:38;;;;;;;;;;;;;;;-144.99;100.00;61100.13;5085121;28;19930;-78
2022/07/29 11:02:31;;;;;;;;;;;;;;;-144.99;100.00;61100.13;5085826;28;20022;-79
2022/07/29 11:05:01;;;;;;;;;;;;;;;-144.99;100.00;61100.13;5097043;28;20027;-79
2022/07/29 11:07:29;;;;;;;;;;;;;;;-144.99;100.00;61100.13;5085390;28;20250;-82
2022/07/29 11:10:15;;;;;;;;;;;;;;;-144.99;100.00;61100.13;5077257;28;20021;-79
2022/07/29 11:12:48;;;;;;;;;;;;;;;-144.99;100.00;61100.13;5098866;28;20390;-79
2022/07/29 11:15:18;;;;;;;;;;;;;;;-144.99;100.00;61100.13;5093115;28;20290;-77
2022/07/29 11:18:04;;;;;;;;;;;;;;;-144.99;100.00;61100.13;5090956;28;19924;-79
2022/07/29 11:20:36;;;;;;;;;;;;;;;-144.99;100.00;61100.13;5080916;28;19936;-81
2022/07/29 11:23:17;;;;;;;;;;;;;;;-144.99;100.00;61100.13;5090518;28;19920;-78
2022/07/29 11:25:44;;;;;;;;;;;;;;;-144.99;100.00;61100.13;5087607;28;20010;-80
2022/07/29 11:28:13;;;;;;;;;;;;;;;-144.99;100.00;61100.13;5084280;28;20008;-78
2022/07/29 11:30:48;;;;;;;;;;;;;;;-144.99;100.00;61100.13;5076423;28;19927;-75
2022/07/29 11:33:27;;;;;;;;;;;;;;;-144.99;100.00;61100.13;5071953;28;19923;-76
2022/07/29 11:36:09;;;;;;;;;;;;;;;-144.99;100.00;61100.13;5083520;28;20422;-74
2022/07/29 11:38:37;;;;;;;;;;;;;;;-144.99;100.00;61100.13;5078399;28;20399;-73
2022/07/29 11:41:23;;;;;;;;;;;;;;;-144.99;100.00;61100.13;5074896;28;20020;-75
2022/07/29 11:43:51;;;;;;;;;;;;;;;-144.99;100.00;61100.13;5092581;28;20276;-77
2022/07/29 11:46:19;;;;;;;;;;;;;;;-144.99;100.00;61100.13;5086946;28;19966;-76
2022/07/29 11:48:45;;;;;;;;;;;;;;;-144.99;100.00;61100.13;5082672;28;20345;-77
2022/07/29 11:51:12;;;;;;;;;;;;;;;-144.99;100.00;61100.13;5080486;28;20201;-74
2022/07/29 11:53:40;;;;;;;;;;;;;;;-144.99;100.00;61100.13;5079555;28;20010;-74
2022/07/29 11:56:09;;;;;;;;;;;;;;;-144.99;100.00;61100.13;5083392;28;19924;-74
2022/07/29 11:58:37;;;;;;;;;;;;;;;-144.99;100.00;61100.13;5075243;28;19924;-76
2022/07/29 12:01:04;;;;;;;;;;;;;;;-144.99;100.00;61100.13;5083547;28;20028;-76
2022/07/29 12:03:30;;;;;;;;;;;;;;;-144.99;100.00;61100.13;5082963;28;20347;-75
2022/07/29 12:05:57;;;;;;;;;;;;;;;-144.99;100.00;61100.13;5081371;28;19923;-76
2022/07/29 12:08:25;;;;;;;;;;;;;;;-144.99;100.00;61100.13;5079095;28;19931;-76
2022/07/29 12:10:53;;;;;;;;;;;;;;;-144.99;100.00;61100.13;5078688;28;20387;-77
2022/07/29 12:13:21;;;;;;;;;;;;;;;-144.99;100.00;61100.13;5083028;28;20024;-74
2022/07/29 12:15:53;;;;;;;;;;;;;;;-144.99;100.00;61100.13;5088006;28;19919;-72
2022/07/29 12:18:21;;;;;;;;;;;;;;;-144.99;100.00;61100.13;5079920;28;19924;-73
2022/07/29 12:20:48;;;;;;;;;;;;;;;-144.99;100.00;61100.13;5070013;28;19932;-73
2022/07/29 12:23:16;;;;;;;;;;;;;;;-144.99;100.00;61100.13;5089836;28;19942;-75
2022/07/29 12:25:43;;;;;;;;;;;;;;;-144.99;100.00;61100.13;5090724;28;19927;-76
2022/07/29 12:28:13;;;;;;;;;;;;;;;-144.99;100.00;61100.13;5082434;28;19963;-75
2022/07/29 12:30:40;;;;;;;;;;;;;;;-144.99;100.00;61100.13;5081909;28;19924;-75
2022/07/29 12:33:15;;;;;;;;;;;;;;;-144.99;100.00;61100.13;5068635;28;20110;-74